Time;durP1;ratioP1;P1;durP2;ratioP2;P2;SDS_P1;SDS_P2;PMS_P1;PMS_P2;Temp;Humidity;BMP_temperature;BMP_pressure;BME280_temperature;BME280_humidity;BME280_pressure;Samples;Min_cycle;Max_cycle;Signal;HPM_P1;HPM_P2
2022/07/04 00:00:47;;;;;;;;;1.33;1.33;;;;;19.97;79.52;100916.56;6245775;22;45353;-93
2022/07/04 00:03:18;;;;;;;;;1.00;1.00;;;;;19.98;79.89;100918.34;6245549;22;48326;-94
2022/07/04 00:05:44;;;;;;;;;0.33;0.33;;;;;19.97;80.22;100918.34;6245890;22;45647;-93
2022/07/04 00:08:09;;;;;;;;;1.00;1.00;;;;;19.95;80.44;100914.75;6245597;22;45247;-94
2022/07/04 00:10:35;;;;;;;;;0.33;0.33;;;;;19.89;80.22;100907.63;6245772;22;45271;-94
2022/07/04 00:13:02;;;;;;;;;1.00;1.00;;;;;19.90;80.51;100909.38;6246278;22;47186;-93
2022/07/04 00:15:30;;;;;;;;;0.33;0.33;;;;;19.80;80.52;100894.19;6248221;22;45415;-92
2022/07/04 00:17:55;;;;;;;;;1.00;1.00;;;;;19.83;80.41;100908.44;6255981;22;45356;-93
2022/07/04 00:20:23;;;;;;;;;1.67;0.33;;;;;19.88;80.71;100917.38;6255017;22;45420;-93
2022/07/04 00:22:51;;;;;;;;;0.00;0.00;;;;;19.81;80.22;100915.53;6255924;22;47069;-94
2022/07/04 00:25:19;;;;;;;;;1.00;1.00;;;;;19.74;80.87;100895.06;6250768;22;45704;-93
2022/07/04 00:27:47;;;;;;;;;1.00;1.00;;;;;19.79;80.85;100917.25;6246621;22;45355;-93
2022/07/04 00:30:13;;;;;;;;;3.33;0.33;;;;;19.72;80.76;100910.09;6246446;22;45194;-93
2022/07/04 00:32:41;;;;;;;;;1.00;1.00;;;;;19.71;81.20;100903.00;6245846;22;47293;-93
2022/07/04 00:35:07;;;;;;;;;0.33;0.33;;;;;19.60;81.09;100900.22;6245788;22;45401;-93
2022/07/04 00:37:34;;;;;;;;;1.00;1.00;;;;;19.57;80.71;100892.22;6247026;22;45333;-93
2022/07/04 00:39:59;;;;;;;;;1.00;1.00;;;;;19.57;81.37;100895.75;6245601;22;45401;-93
2022/07/04 00:42:28;;;;;;;;;0.00;0.00;;;;;19.56;81.61;100901.09;6247887;22;48437;-94
2022/07/04 00:44:56;;;;;;;;;0.00;0.00;;;;;19.58;81.37;100916.19;6246643;22;45355;-93
2022/07/04 00:47:26;;;;;;;;;0.67;0.67;;;;;19.42;81.71;100888.53;6246767;22;45410;-94
2022/07/04 00:49:54;;;;;;;;;1.00;1.00;;;;;19.41;81.92;100884.06;6246046;22;45278;-94
2022/07/04 00:52:22;;;;;;;;;1.00;0.33;;;;;19.31;82.04;100881.31;6246130;22;47212;-93
2022/07/04 00:54:50;;;;;;;;;0.00;0.00;;;;;19.36;82.06;100901.75;6245766;22;45885;-94
2022/07/04 00:57:16;;;;;;;;;0.67;0.00;;;;;19.27;82.16;100892.81;6247594;22;45399;-93
2022/07/04 00:59:41;;;;;;;;;1.00;1.00;;;;;19.19;82.51;100886.50;6248502;22;45716;-94
2022/07/04 01:02:07;;;;;;;;;2.00;0.00;;;;;19.24;82.53;100907.81;6255210;22;48130;-93
2022/07/04 01:04:42;;;;;;;;;0.00;0.00;;;;;19.13;82.51;100897.91;6251204;22;45515;-93
2022/07/04 01:07:11;;;;;;;;;1.33;0.00;;;;;19.16;82.72;100900.63;6254929;22;45159;-94
2022/07/04 01:09:39;;;;;;;;;1.00;1.00;;;;;19.15;83.14;100912.13;6253464;22;45576;-94
2022/07/04 01:12:05;;;;;;;;;2.00;1.00;;;;;19.02;83.23;100891.59;6246092;22;47221;-94
2022/07/04 01:14:30;;;;;;;;;0.00;0.00;;;;;18.95;83.46;100888.84;6245614;22;45357;-94
2022/07/04 01:16:56;;;;;;;;;1.00;1.00;;;;;18.96;83.53;100892.41;6246064;22;45327;-93
2022/07/04 01:19:21;;;;;;;;;1.67;1.33;;;;;18.91;84.13;100886.13;6273831;22;45302;-93
2022/07/04 01:21:49;;;;;;;;;2.00;1.00;;;;;18.97;84.07;100900.38;6245011;22;46841;-93
2022/07/04 01:24:14;;;;;;;;;1.00;1.00;;;;;18.93;84.37;100887.03;6245243;22;45509;-93
2022/07/04 01:26:40;;;;;;;;;1.00;1.00;;;;;18.85;84.49;100876.28;6246033;22;45291;-94
2022/07/04 01:29:11;;;;;;;;;1.33;1.33;;;;;18.89;84.46;100893.19;6245986;22;45379;-94
2022/07/04 01:31:36;;;;;;;;;1.00;1.00;;;;;18.84;84.60;100886.03;6245657;22;47724;-94
2022/07/04 01:34:01;;;;;;;;;0.33;0.33;;;;;18.85;85.14;100892.25;6245230;22;45798;-93
2022/07/04 01:36:27;;;;;;;;;0.00;0.00;;;;;18.87;84.85;100903.78;6245177;22;45279;-95
2022/07/04 01:38:58;;;;;;;;;1.00;1.00;;;;;18.81;85.04;100893.97;6245871;22;45219;-93
2022/07/04 01:41:35;;;;;;;;;2.00;2.00;;;;;18.66;85.60;100884.00;6245678;22;47354;-93
2022/07/04 01:44:01;;;;;;;;;2.00;2.00;;;;;18.70;85.84;100888.50;6245873;22;45651;-93
2022/07/04 01:46:26;;;;;;;;;2.00;2.00;;;;;18.70;85.80;100888.50;6253747;22;45370;-94
2022/07/04 01:48:52;;;;;;;;;2.00;2.00;;;;;18.58;86.13;100865.28;6255624;22;45527;-93
2022/07/04 01:51:19;;;;;;;;;5.00;2.00;;;;;18.58;86.12;100867.09;6255686;22;46971;-94
2022/07/04 01:53:55;;;;;;;;;1.00;1.00;;;;;18.58;86.30;100877.72;6255099;22;45211;-93
2022/07/04 01:56:51;;;;;;;;;2.00;2.00;;;;;18.57;86.31;100897.19;6247322;22;45321;-94
2022/07/04 01:59:17;;;;;;;;;1.67;1.00;;;;;18.41;86.87;100865.06;6246026;22;45486;-93
2022/07/04 02:01:48;;;;;;;;;1.00;1.00;;;;;18.39;86.94;100873.03;6245662;22;47168;-94
2022/07/04 02:04:18;;;;;;;;;1.67;1.67;;;;;18.45;86.82;100881.97;6244295;22;45223;-94
2022/07/04 02:06:51;;;;;;;;;1.00;1.00;;;;;18.45;87.17;100885.47;6245194;22;45377;-94
2022/07/04 02:09:19;;;;;;;;;2.00;2.00;;;;;18.34;87.00;100869.41;6244685;22;45411;-94
2022/07/04 02:14:34;;;;;;;;;2.00;1.67;;;;;18.27;87.57;100852.44;6272750;22;45506;-93
2022/07/04 02:17:02;;;;;;;;;2.00;2.00;;;;;18.37;87.55;100872.13;6245037;22;45264;-93
2022/07/04 02:19:31;;;;;;;;;2.67;1.67;;;;;18.25;87.82;100853.31;6245293;22;45758;-94
2022/07/04 02:22:24;;;;;;;;;1.00;1.00;;;;;18.20;88.05;100846.16;6245143;22;47141;-94
2022/07/04 02:24:50;;;;;;;;;1.00;1.00;;;;;18.17;87.93;100842.53;6244353;22;45401;-92
2022/07/04 02:27:15;;;;;;;;;3.00;2.33;;;;;18.28;88.32;100870.19;6246226;22;45687;-93
2022/07/04 02:29:50;;;;;;;;;1.00;1.00;;;;;18.12;88.38;100849.53;6246012;22;45303;-94
2022/07/04 02:32:18;;;;;;;;;0.00;0.00;;;;;18.20;88.60;100851.47;6253694;22;47040;-93
2022/07/04 02:34:43;;;;;;;;;3.00;1.00;;;;;18.18;88.90;100858.50;6254313;22;45422;-94
2022/07/04 02:37:11;;;;;;;;;2.00;2.00;;;;;18.15;89.12;100849.59;6255099;22;45206;-94
2022/07/04 02:39:37;;;;;;;;;2.00;1.33;;;;;18.10;89.17;100854.81;6252258;22;45365;-93
2022/07/04 02:42:02;;;;;;;;;1.33;1.33;;;;;17.93;89.62;100842.19;6247164;22;46914;-93
2022/07/04 02:44:28;;;;;;;;;1.00;1.00;;;;;18.02;89.46;100867.09;6273834;22;45855;-93
2022/07/04 02:46:53;;;;;;;;;2.00;1.33;;;;;17.93;89.92;100852.81;6246274;22;45464;-94
2022/07/04 02:49:19;;;;;;;;;1.33;1.33;;;;;17.86;89.73;100840.28;6245138;22;45437;-94
2022/07/04 02:51:45;;;;;;;;;1.00;1.00;;;;;17.83;89.91;100845.56;6245921;22;48202;-93
2022/07/04 02:54:13;;;;;;;;;1.67;1.67;;;;;17.85;89.98;100850.03;6245160;22;45410;-94
2022/07/04 02:56:38;;;;;;;;;2.00;2.00;;;;;17.79;90.18;100841.94;6246255;22;45295;-93
2022/07/04 02:59:04;;;;;;;;;3.67;3.67;;;;;17.79;90.38;100846.34;6246051;22;45252;-94
2022/07/04 03:01:29;;;;;;;;;2.00;1.00;;;;;17.75;90.58;100848.97;6245576;22;47270;-94
2022/07/04 03:04:03;;;;;;;;;3.00;3.00;;;;;17.64;90.96;100838.16;6244921;22;45391;-94
2022/07/04 03:06:49;;;;;;;;;3.00;3.00;;;;;17.61;90.92;100840.75;6245944;22;45247;-94
2022/07/04 03:09:45;;;;;;;;;4.67;1.00;;;;;17.67;91.15;100847.03;6245855;22;45266;-95
2022/07/04 03:12:13;;;;;;;;;2.33;1.00;;;;;17.56;91.38;100847.75;6246176;22;47224;-94
2022/07/04 03:14:39;;;;;;;;;3.67;2.00;;;;;17.64;91.58;100855.84;6249559;22;45271;-94
2022/07/04 03:17:04;;;;;;;;;2.67;2.67;;;;;17.55;91.43;100845.06;6283117;22;45405;-93
2022/07/04 03:19:35;;;;;;;;;2.00;2.00;;;;;17.61;91.78;100859.34;6254683;22;45382;-94
2022/07/04 03:22:00;;;;;;;;;1.00;1.00;;;;;17.53;92.14;100848.59;6254991;22;47372;-94
2022/07/04 03:24:29;;;;;;;;;2.00;1.00;;;;;17.62;91.94;100863.78;6250918;22;45428;-93
2022/07/04 03:27:04;;;;;;;;;1.00;1.00;;;;;17.58;92.01;100861.03;6247319;22;45500;-94
2022/07/04 03:29:42;;;;;;;;;;;;;;;;;;;;;
2022/07/04 03:32:13;;;;;;;;;1.00;1.00;;;;;17.51;92.68;100845.00;6272871;22;75396;-94
2022/07/04 03:35:11;;;;;;;;;;;;;;;;;;;;;
2022/07/04 03:37:57;;;;;;;;;1.00;1.00;;;;;17.48;93.16;100846.72;6273202;22;67282;-95
2022/07/04 03:40:39;;;;;;;;;1.00;1.00;;;;;17.49;92.97;100852.06;6246085;22;45535;-93
2022/07/04 03:43:10;;;;;;;;;1.00;1.00;;;;;17.47;93.19;100850.25;6246924;22;47155;-94
2022/07/04 03:45:38;;;;;;;;;3.00;1.33;;;;;17.47;93.27;100858.22;6248393;22;45664;-93
2022/07/04 03:48:03;;;;;;;;;1.00;1.00;;;;;17.48;93.34;100860.88;6249611;22;45410;-94
2022/07/04 03:50:29;;;;;;;;;3.00;1.67;;;;;17.46;93.59;100859.97;6247969;22;45404;-94
2022/07/04 03:53:02;;;;;;;;;4.00;2.00;;;;;17.41;93.90;100845.72;6246352;22;47711;-96
2022/07/04 03:55:28;;;;;;;;;1.67;1.67;;;;;17.33;93.85;100834.06;6246841;22;45342;-94
2022/07/04 03:57:58;;;;;;;;;5.67;1.67;;;;;17.28;94.13;100828.66;6247373;22;45454;-94
2022/07/04 04:00:24;;;;;;;;;1.33;1.33;;;;;17.34;94.49;100838.50;6250446;22;45180;-94
2022/07/04 04:02:49;;;;;;;;;2.67;2.00;;;;;17.33;94.37;100840.25;6255685;22;47101;-94
2022/07/04 04:05:30;;;;;;;;;4.00;2.67;;;;;17.34;94.64;100844.72;6256180;22;45315;-94
2022/07/04 04:08:10;;;;;;;;;;;;;;;;;;;;;
2022/07/04 04:10:38;;;;;;;;;1.33;1.33;;;;;17.25;95.06;100836.56;6278362;22;70248;-94
2022/07/04 04:13:12;;;;;;;;;2.00;2.00;;;;;17.20;95.16;100834.72;6246635;22;47264;-94
2022/07/04 04:15:42;;;;;;;;;2.33;2.33;;;;;17.23;95.45;100843.59;6246309;22;45356;-94
2022/07/04 04:18:23;;;;;;;;;;;;;;;;;;;;;
2022/07/04 04:21:08;;;;;;;;;2.00;2.00;;;;;17.23;95.74;100835.63;6272239;22;69788;-94
2022/07/04 04:23:34;;;;;;;;;1.00;1.00;;;;;17.23;95.65;100833.00;6245552;22;47860;-94
2022/07/04 04:26:07;;;;;;;;;1.00;1.00;;;;;17.29;95.67;100851.69;6245692;22;45382;-94
2022/07/04 04:28:35;;;;;;;;;2.67;1.33;;;;;17.24;96.28;100848.06;6246749;22;45458;-94
2022/07/04 04:31:03;;;;;;;;;1.00;1.00;;;;;17.26;96.26;100851.63;6245551;22;45425;-94
2022/07/04 04:33:31;;;;;;;;;3.00;1.67;;;;;17.25;96.22;100840.13;6245523;22;47821;-94
2022/07/04 04:35:56;;;;;;;;;2.00;2.00;;;;;17.39;96.12;100861.63;6245896;22;45475;-93
2022/07/04 04:38:24;;;;;;;;;4.00;2.00;;;;;17.47;96.30;100869.69;6246020;22;45674;-94
2022/07/04 04:40:52;;;;;;;;;3.00;3.00;;;;;17.41;96.61;100840.41;6246109;22;45432;-94
2022/07/04 04:43:20;;;;;;;;;2.00;2.00;;;;;17.45;97.04;100839.59;6246548;22;46968;-93
2022/07/04 04:45:46;;;;;;;;;2.00;2.00;;;;;17.56;96.87;100844.19;6247042;22;45520;-94
2022/07/04 04:48:14;;;;;;;;;4.00;2.00;;;;;17.59;97.04;100850.47;6255684;22;45712;-94
2022/07/04 04:54:03;;;;;;;;;3.00;3.00;;;;;17.69;96.98;100846.19;6277970;22;46298;-94
2022/07/04 04:56:49;;;;;;;;;4.00;2.00;;;;;17.70;96.71;100842.69;6279255;22;45479;-94
2022/07/04 04:59:23;;;;;;;;;1.00;1.00;;;;;17.85;96.74;100860.66;6245154;22;45481;-95
2022/07/04 05:01:49;;;;;;;;;3.00;1.67;;;;;17.76;97.23;100833.91;6245688;22;45790;-94
2022/07/04 05:04:36;;;;;;;;;3.33;1.00;;;;;17.91;96.66;100856.31;6245666;22;48454;-94
2022/07/04 05:07:01;;;;;;;;;3.00;3.00;;;;;17.92;97.03;100850.09;6246430;22;45214;-94
2022/07/04 05:09:34;;;;;;;;;2.67;2.00;;;;;17.97;97.26;100835.16;6246189;22;45409;-94
2022/07/04 05:12:05;;;;;;;;;1.67;1.67;;;;;18.07;97.15;100844.16;6246853;22;45511;-94
2022/07/04 05:14:31;;;;;;;;;4.67;1.33;;;;;18.13;97.25;100840.69;6247350;22;47087;-94
2022/07/04 05:16:56;;;;;;;;;2.00;2.00;;;;;18.27;97.09;100863.09;6246693;22;45464;-93
2022/07/04 05:19:22;;;;;;;;;2.00;2.00;;;;;18.27;97.33;100852.44;6246504;22;45331;-93
2022/07/04 05:21:49;;;;;;;;;0.67;0.67;;;;;18.45;97.16;100869.53;6245603;22;45386;-94
2022/07/04 05:24:20;;;;;;;;;4.33;2.67;;;;;18.37;97.13;100837.56;6245763;22;47442;-93
2022/07/04 05:26:45;;;;;;;;;1.33;1.00;;;;;18.54;97.07;100850.19;6245689;22;45429;-93
2022/07/04 05:29:11;;;;;;;;;2.00;2.00;;;;;18.54;97.16;100835.13;6245703;22;45394;-93
2022/07/04 05:31:39;;;;;;;;;2.67;2.00;;;;;18.64;97.76;100835.25;6250654;22;45559;-93
2022/07/04 05:34:06;;;;;;;;;2.00;2.00;;;;;18.81;97.12;100856.72;6255744;22;47076;-93
2022/07/04 05:36:32;;;;;;;;;2.00;1.00;;;;;18.83;96.95;100848.78;6255107;22;45315;-94
2022/07/04 05:38:58;;;;;;;;;2.00;1.33;;;;;18.79;97.20;100817.69;6254150;22;45244;-93
2022/07/04 05:41:26;;;;;;;;;1.33;1.33;;;;;18.93;97.32;100826.75;6249831;22;45339;-93
2022/07/04 05:43:51;;;;;;;;;2.00;2.00;;;;;19.08;96.75;100847.31;6248055;22;47918;-93
2022/07/04 05:46:16;;;;;;;;;2.33;2.33;;;;;19.10;96.67;100834.03;6250599;22;45432;-92
2022/07/04 05:48:42;;;;;;;;;1.00;1.00;;;;;19.17;97.16;100835.00;6250395;22;45255;-93
2022/07/04 05:51:12;;;;;;;;;4.00;3.33;;;;;19.20;96.49;100827.97;6248601;22;45605;-92
2022/07/04 05:53:38;;;;;;;;;2.67;2.00;;;;;19.28;96.37;100821.81;6246095;22;47676;-93
2022/07/04 05:56:03;;;;;;;;;2.67;2.33;;;;;19.36;96.83;100817.47;6245599;22;45124;-93
2022/07/04 05:58:29;;;;;;;;;4.00;2.67;;;;;19.42;96.46;100824.63;6245415;22;45251;-93
2022/07/04 06:00:57;;;;;;;;;1.67;1.67;;;;;19.50;96.25;100820.28;6245130;22;45317;-94
2022/07/04 06:03:22;;;;;;;;;3.33;3.33;;;;;19.58;95.95;100836.34;6245012;22;47013;-93
2022/07/04 06:06:16;;;;;;;;;2.00;2.00;;;;;19.62;95.29;100830.16;6245194;22;45408;-94
2022/07/04 06:09:02;;;;;;;;;1.00;1.00;;;;;19.69;95.97;100831.09;6246434;22;45368;-94
2022/07/04 06:11:34;;;;;;;;;1.00;1.00;;;;;19.81;95.26;100846.28;6245809;22;45503;-94
2022/07/04 06:14:02;;;;;;;;;4.33;1.00;;;;;20.02;94.84;100867.75;6245121;22;47523;-94
2022/07/04 06:16:45;;;;;;;;;;;;;;;;;;;;;
2022/07/04 06:19:20;;;;;;;;;3.00;2.33;;;;;20.06;95.37;100853.56;6282180;22;68850;-95
2022/07/04 06:21:55;;;;;;;;;2.00;2.00;;;;;20.07;94.92;100842.06;6255135;22;45274;-94
2022/07/04 06:24:21;;;;;;;;;1.00;1.00;;;;;20.24;95.25;100860.84;6253093;22;46801;-90
2022/07/04 06:26:46;;;;;;;;;2.00;2.00;;;;;20.34;95.15;100867.13;6279129;22;45336;-89
2022/07/04 06:29:12;;;;;;;;;2.00;2.00;;;;;20.34;95.08;100852.91;6270449;22;45366;-88
2022/07/04 06:31:37;;;;;;;;;2.67;2.67;;;;;20.43;94.14;100872.53;6275436;22;45338;-87
2022/07/04 06:36:46;;;;;;;;;2.00;2.00;;;;;20.50;94.57;100857.47;6270299;22;45307;-89
2022/07/04 06:39:12;;;;;;;;;1.67;1.33;;;;;20.58;94.15;100865.50;6268933;22;45656;-89
2022/07/04 06:41:37;;;;;;;;;4.00;4.00;;;;;20.63;94.37;100868.19;6269676;22;45374;-89
2022/07/04 06:44:03;;;;;;;;;4.67;2.00;;;;;20.67;94.13;100869.09;6269948;22;45377;-89
2022/07/04 06:46:29;;;;;;;;;2.67;2.67;;;;;20.73;94.33;100869.13;6269900;22;45322;-89
2022/07/04 06:48:54;;;;;;;;;1.00;1.00;;;;;20.78;93.29;100872.69;6269820;22;45319;-89
2022/07/04 06:51:20;;;;;;;;;3.00;2.00;;;;;20.84;93.33;100874.50;6269510;22;45482;-88
2022/07/04 06:53:45;;;;;;;;;4.00;4.00;;;;;20.88;92.96;100877.19;6265979;22;45371;-89
2022/07/04 06:56:11;;;;;;;;;3.00;3.00;;;;;20.92;93.65;100869.22;6267592;22;45386;-89
2022/07/04 06:58:36;;;;;;;;;3.00;3.00;;;;;20.99;93.47;100871.91;6270025;22;45260;-90
2022/07/04 07:01:02;;;;;;;;;2.00;2.00;;;;;21.07;92.50;100892.44;6270259;22;45752;-88
2022/07/04 07:03:27;;;;;;;;;3.00;3.00;;;;;21.11;92.32;100886.19;6271433;22;45745;-90
2022/07/04 07:05:53;;;;;;;;;2.67;1.33;;;;;21.19;91.92;100892.47;6248145;22;45358;-92
2022/07/04 07:08:18;;;;;;;;;1.00;1.00;;;;;21.22;91.73;100896.94;6282165;22;45458;-92
2022/07/04 07:10:44;;;;;;;;;2.67;2.00;;;;;21.32;92.29;100900.50;6252206;22;45690;-90
2022/07/04 07:13:10;;;;;;;;;2.00;2.00;;;;;21.41;91.54;100905.91;6281583;22;46502;-91
2022/07/04 07:15:36;;;;;;;;;2.00;1.00;;;;;21.49;91.51;100902.34;6276027;22;45270;-92
2022/07/04 07:18:02;;;;;;;;;0.00;0.00;;;;;21.57;91.77;100903.22;6253030;22;45418;-92
2022/07/04 07:20:28;;;;;;;;;2.00;1.00;;;;;21.62;91.18;100909.47;6253032;22;45350;-91
2022/07/04 07:22:54;;;;;;;;;2.00;1.67;;;;;21.65;90.75;100909.47;6253691;22;46755;-92
2022/07/04 07:25:20;;;;;;;;;2.00;2.00;;;;;21.76;90.83;100922.88;6278936;22;45364;-91
2022/07/04 07:27:45;;;;;;;;;1.00;1.00;;;;;21.84;90.36;100919.31;6271296;22;45285;-91
2022/07/04 07:30:11;;;;;;;;;1.00;1.00;;;;;21.88;90.15;100914.00;6273298;22;45319;-89
2022/07/04 07:32:36;;;;;;;;;2.00;2.00;;;;;21.99;90.15;100916.69;6272463;22;45259;-91
2022/07/04 07:35:01;;;;;;;;;2.67;2.67;;;;;22.08;90.07;100913.13;6273347;22;45278;-90
2022/07/04 07:37:27;;;;;;;;;2.00;1.33;;;;;22.19;89.32;100923.78;6271130;22;45325;-88
2022/07/04 07:39:53;;;;;;;;;1.00;1.00;;;;;22.28;89.96;100917.56;6270570;22;45207;-87
2022/07/04 07:42:18;;;;;;;;;2.67;2.00;;;;;22.35;89.35;100922.88;6274224;22;45242;-88
2022/07/04 07:44:46;;;;;;;;;4.00;1.00;;;;;22.44;88.94;100922.91;6271228;22;45349;-88
2022/07/04 07:47:12;;;;;;;;;3.67;2.00;;;;;22.50;88.59;100924.66;6271509;22;45572;-88
2022/07/04 07:49:37;;;;;;;;;2.67;1.67;;;;;22.54;87.88;100935.38;6274650;22;45269;-88
2022/07/04 07:52:03;;;;;;;;;2.00;2.00;;;;;22.58;88.23;100920.19;6252057;22;46195;-88
2022/07/04 07:54:28;;;;;;;;;1.00;1.00;;;;;22.68;87.31;100934.41;6250270;22;45325;-88
2022/07/04 07:56:54;;;;;;;;;3.00;3.00;;;;;22.76;87.52;100926.41;6280411;22;45294;-88
2022/07/04 07:59:19;;;;;;;;;2.33;1.00;;;;;22.84;87.39;100929.06;6277835;22;45301;-89
2022/07/04 08:01:44;;;;;;;;;1.00;1.00;;;;;22.95;86.63;100937.06;6270650;22;46620;-88
2022/07/04 08:06:53;;;;;;;;;2.00;2.00;;;;;23.08;85.97;100936.13;6272365;22;45547;-88
2022/07/04 08:09:19;;;;;;;;;2.00;1.33;;;;;23.15;85.63;100925.38;6270616;22;45649;-88
2022/07/04 08:11:44;;;;;;;;;2.67;2.67;;;;;23.25;84.40;100944.97;6271001;22;46094;-88
2022/07/04 08:14:09;;;;;;;;;2.00;1.67;;;;;23.26;84.22;100946.75;6272330;22;45345;-88
2022/07/04 08:16:35;;;;;;;;;2.67;2.67;;;;;23.32;84.46;100950.28;6272279;22;45533;-88
2022/07/04 08:19:03;;;;;;;;;1.00;1.00;;;;;23.41;84.48;100945.78;6244464;22;45380;-87
2022/07/04 08:21:28;;;;;;;;;2.00;2.00;;;;;23.44;83.58;100952.03;6271586;22;45575;-88
2022/07/04 08:23:54;;;;;;;;;2.00;2.00;;;;;23.49;83.48;100953.78;6242934;22;45344;-88
2022/07/04 08:26:19;;;;;;;;;0.67;0.33;;;;;23.53;83.19;100956.47;6244474;22;45393;-88
2022/07/04 08:28:45;;;;;;;;;2.67;0.33;;;;;23.59;82.53;100971.63;6272825;22;45172;-88
2022/07/04 08:31:11;;;;;;;;;0.00;0.00;;;;;23.67;82.02;100976.94;6244254;22;47119;-88
2022/07/04 08:33:36;;;;;;;;;1.67;1.67;;;;;23.73;82.41;100968.88;6272162;22;45399;-87
2022/07/04 08:36:03;;;;;;;;;0.67;0.67;;;;;23.84;80.97;100982.19;6249220;22;45399;-87
2022/07/04 08:38:28;;;;;;;;;0.00;0.00;;;;;23.86;80.00;100993.78;6280561;22;45228;-89
2022/07/04 08:40:57;;;;;;;;;0.00;0.00;;;;;23.94;80.04;100999.09;6253275;22;47203;-88
2022/07/04 08:43:23;;;;;;;;;0.33;0.33;;;;;23.98;80.00;100997.28;6250279;22;45263;-89
2022/07/04 08:45:52;;;;;;;;;1.00;1.00;;;;;24.04;79.87;100993.69;6247204;22;45168;-88
2022/07/04 08:48:23;;;;;;;;;0.33;0.33;;;;;24.13;79.40;101004.34;6245904;22;45372;-89
2022/07/04 08:50:51;;;;;;;;;0.00;0.00;;;;;24.22;78.81;101011.44;6246574;22;46303;-89
2022/07/04 08:53:19;;;;;;;;;1.00;1.00;;;;;24.27;78.72;101006.97;6273586;22;45501;-88
2022/07/04 08:58:31;;;;;;;;;0.33;0.33;;;;;24.39;78.19;101010.41;6271923;22;45301;-88
2022/07/04 09:01:11;;;;;;;;;1.00;1.00;;;;;24.44;77.98;101008.59;6244981;22;47078;-90
2022/07/04 09:03:36;;;;;;;;;0.67;0.67;;;;;24.50;78.12;101007.66;6243755;22;45352;-89
2022/07/04 09:06:02;;;;;;;;;0.33;0.33;;;;;24.57;78.35;101008.47;6270964;22;45318;-90
2022/07/04 09:08:28;;;;;;;;;1.00;1.00;;;;;24.67;77.93;101010.16;6243665;22;45369;-91
2022/07/04 09:10:54;;;;;;;;;1.00;1.00;;;;;24.70;77.31;101038.78;6271702;22;46493;-89
2022/07/04 09:13:20;;;;;;;;;1.00;1.00;;;;;24.75;77.24;101249.88;6269317;22;45428;-90
2022/07/04 09:15:50;;;;;;;;;1.33;1.33;;;;;24.83;77.22;101284.72;6272126;22;45364;-89
2022/07/04 09:18:26;;;;;;;;;0.00;0.00;;;;;24.93;77.71;101317.75;6244110;22;45179;-89
2022/07/04 09:20:59;;;;;;;;;0.00;0.00;;;;;25.02;77.02;101361.63;6272986;22;46038;-89
2022/07/04 09:23:27;;;;;;;;;1.33;0.33;;;;;25.11;77.07;101367.81;6280591;22;45163;-89
2022/07/04 09:26:20;;;;;;;;;0.00;0.00;;;;;25.21;76.86;101414.31;6280326;22;45345;-89
2022/07/04 09:28:56;;;;;;;;;0.00;0.00;;;;;25.30;75.33;101471.59;6253419;22;45538;-90
2022/07/04 09:31:24;;;;;;;;;0.33;0.33;;;;;25.37;75.83;101462.59;6276503;22;46126;-89
2022/07/04 09:33:58;;;;;;;;;0.33;0.33;;;;;25.53;75.85;101473.25;6273510;22;45372;-90
2022/07/04 09:36:29;;;;;;;;;1.00;0.00;;;;;25.80;75.64;101492.81;6272868;22;45388;-89
2022/07/04 09:39:12;;;;;;;;;1.33;1.33;;;;;25.95;75.29;101515.16;6239842;22;45377;-90
2022/07/04 09:42:03;;;;;;;;;2.00;0.67;;;;;26.03;74.88;101542.84;6271668;22;45341;-90
2022/07/04 09:44:34;;;;;;;;;0.00;0.00;;;;;26.18;74.67;101549.03;6271768;22;45315;-90
2022/07/04 09:47:27;;;;;;;;;1.00;1.00;;;;;26.47;74.96;101547.94;6243761;22;45300;-89
2022/07/04 09:50:10;;;;;;;;;1.00;1.00;;;;;26.69;74.29;101561.19;6243499;22;45538;-89
2022/07/04 09:52:49;;;;;;;;;0.00;0.00;;;;;26.77;73.12;101599.72;6271708;22;45357;-90
2022/07/04 09:55:32;;;;;;;;;1.67;1.00;;;;;26.87;73.49;101607.69;6243623;22;45376;-89
2022/07/04 09:58:02;;;;;;;;;1.00;1.00;;;;;27.18;72.86;101623.59;6243629;22;45841;-90
2022/07/04 10:00:47;;;;;;;;;0.67;0.67;;;;;28.37;73.67;101618.47;6272009;22;45437;-90
2022/07/04 10:03:27;;;;;;;;;0.00;0.00;;;;;30.10;72.64;101645.88;6271711;22;45342;-90
2022/07/04 10:06:12;;;;;;;;;1.00;0.00;;;;;32.18;72.48;101671.16;6240460;22;45327;-91
2022/07/04 10:08:43;;;;;;;;;0.00;0.00;;;;;34.13;70.00;101718.81;6252235;22;45267;-90
2022/07/04 10:11:09;;;;;;;;;1.67;0.33;;;;;35.63;66.68;101776.28;6291322;22;44773;-94
2022/07/04 10:13:35;;;;;;;;;2.33;1.00;;;;;36.84;66.32;101776.09;6261502;22;46832;-94
2022/07/04 10:16:00;;;;;;;;;0.00;0.00;;;;;37.92;63.34;101799.78;6260912;22;45223;-93
2022/07/04 10:18:27;;;;;;;;;0.33;0.33;;;;;38.71;60.85;101810.91;6252367;22;50143;-94
2022/07/04 10:20:54;;;;;;;;;1.00;1.00;;;;;39.22;58.12;101814.38;6247333;22;45531;-94
2022/07/04 10:23:21;;;;;;;;;0.00;0.00;;;;;40.01;58.00;101818.75;6244610;22;47014;-95
2022/07/04 10:25:52;;;;;;;;;0.00;0.00;;;;;41.38;56.48;101824.47;6244249;22;45805;-94
2022/07/04 10:28:18;;;;;;;;;0.00;0.00;;;;;42.86;55.58;101828.53;6277703;22;45424;-94
2022/07/04 10:30:48;;;;;;;;;0.00;0.00;;;;;44.14;52.71;101827.84;6277411;22;45441;-95
2022/07/04 10:33:15;;;;;;;;;0.00;0.00;;;;;44.96;48.36;101830.28;6275761;22;46424;-96
2022/07/04 10:36:03;;;;;;;;;0.00;0.00;;;;;45.74;47.84;101833.75;6258515;22;45453;-96
2022/07/04 10:38:32;;;;;;;;;0.00;0.00;;;;;46.79;47.37;101830.84;6251904;22;45819;-95
2022/07/04 10:41:02;;;;;;;;;0.33;0.33;;;;;47.98;46.10;101820.38;6193283;22;45194;-95
2022/07/04 10:43:37;;;;;;;;;1.33;0.00;;;;;49.15;44.87;101837.41;6184742;22;46955;-94
2022/07/04 10:46:02;;;;;;;;;0.67;0.00;;;;;50.16;41.91;101832.44;6211551;22;45457;-89
2022/07/04 10:48:29;;;;;;;;;0.67;0.67;;;;;50.81;42.08;101829.09;6181988;22;45325;-91
2022/07/04 10:51:05;;;;;;;;;0.00;0.00;;;;;51.42;39.02;101834.25;6184079;22;45466;-89
2022/07/04 10:53:39;;;;;;;;;0.00;0.00;;;;;51.97;38.54;101838.31;6215289;22;47916;-89
2022/07/04 10:56:25;;;;;;;;;1.00;1.00;;;;;52.62;37.71;101840.94;6220023;22;45374;-95
2022/07/04 10:58:50;;;;;;;;;0.00;0.00;;;;;53.22;36.06;101832.88;6221015;22;45287;-90
2022/07/04 11:01:17;;;;;;;;;0.00;0.00;;;;;53.77;35.28;101831.72;6209692;22;45281;-90
2022/07/04 11:03:47;;;;;;;;;1.00;1.00;;;;;54.36;35.35;101832.69;6181480;22;48392;-90
2022/07/04 11:06:42;;;;;;;;;0.00;0.00;;;;;55.01;34.30;101832.84;6209878;22;45375;-89
2022/07/04 11:09:10;;;;;;;;;0.00;0.00;;;;;55.54;33.36;101831.50;6208109;22;45372;-90
2022/07/04 11:12:05;;;;;;;;;0.67;0.67;;;;;56.01;32.87;101833.66;6209417;22;45283;-89
2022/07/04 11:14:44;;;;;;;;;0.00;0.00;;;;;56.41;32.05;101832.03;6206948;22;46231;-90
2022/07/04 11:17:19;;;;;;;;;1.00;0.00;;;;;56.65;31.61;101814.75;6176285;22;45732;-90
2022/07/04 11:19:45;;;;;;;;;0.00;0.00;;;;;56.93;30.59;101827.75;6210703;22;45322;-90
2022/07/04 11:22:11;;;;;;;;;4.00;1.00;;;;;57.23;30.82;101829.22;6220210;22;44778;-91
2022/07/04 11:24:38;;;;;;;;;0.00;0.00;;;;;57.49;30.69;101824.59;6208970;22;46177;-90
2022/07/04 11:27:07;;;;;;;;;0.00;0.00;;;;;57.71;29.76;101818.63;6210900;22;45359;-90
2022/07/04 11:29:34;;;;;;;;;0.00;0.00;;;;;57.94;29.22;101825.75;6208768;22;45741;-91
2022/07/04 11:31:59;;;;;;;;;0.67;0.67;;;;;58.14;29.18;101827.56;6210591;22;45381;-90
2022/07/04 11:34:24;;;;;;;;;0.00;0.00;;;;;58.35;28.93;101809.38;6211314;22;46100;-91
2022/07/04 11:36:51;;;;;;;;;1.67;1.00;;;;;58.67;28.43;101811.31;6213166;22;45334;-91
2022/07/04 11:39:19;;;;;;;;;1.00;1.00;;;;;58.98;28.82;101824.72;6217110;22;45430;-90
2022/07/04 11:47:45;;;;;;;;;0.00;0.00;;;;;59.68;27.74;101810.44;6210275;22;45252;-89
2022/07/04 11:50:13;;;;;;;;;0.00;0.00;;;;;59.91;27.50;101803.16;6210559;22;45180;-90
2022/07/04 11:52:46;;;;;;;;;0.00;0.00;;;;;60.16;26.71;101802.16;6211179;22;45299;-90
2022/07/04 11:55:13;;;;;;;;;1.67;0.00;;;;;60.22;26.46;101794.66;6209871;22;45185;-91
2022/07/04 11:57:51;;;;;;;;;0.33;0.33;;;;;60.41;26.36;101791.75;6183217;22;45668;-90
2022/07/04 12:00:19;;;;;;;;;0.00;0.00;;;;;60.74;26.09;101786.59;6210453;22;45374;-92
2022/07/04 12:02:47;;;;;;;;;0.67;0.67;;;;;60.98;25.19;101792.28;6183379;22;45423;-95